Siam — SGIP — position and weather

sailwx.info

Track history (hours):
 
Tides and Currents Weather Stations Pressure Air Temp Water Temp Dewpoint Dewpoint Depression Visibility Wind Speed Wind Dir Waves Ship Positions

Siam

Last reported at 2015-Mar-01 07:29 UTC. Time now 2015-Mar-01 10:59 UTC.
Position N 55°56' E 012°42'.

Length 22 m.

Type: Passenger vessel. MMSI: 265572320.

Date/timePositionNaut miles runAvg speedWind from/ knotsBaromVisibWave heightAir tempDewpointWater temp
2015-Mar-01 07:29N 55°56' E 012°42'4 0.8
2015-Mar-01 02:27N 55°60' E 012°45'0 0.0
2015-Mar-01 01:33N 55°60' E 012°45'0 0.0
2015-Mar-01 00:34N 55°60' E 012°45'0 0.0
2015-Feb-28 23:33N 55°60' E 012°45'0 0.0
2015-Feb-28 22:34N 55°60' E 012°45'0 0.0
2015-Feb-28 21:31N 55°60' E 012°45'0 0.0
2015-Feb-28 20:31N 55°60' E 012°45'0 0.0
2015-Feb-28 19:31N 55°60' E 012°45'0 0.0
2015-Feb-28 18:31N 55°60' E 012°45'0 0.0
2015-Feb-28 17:25N 55°60' E 012°45'0 0.0
2015-Feb-28 16:31N 55°60' E 012°45'0 0.0
2015-Feb-28 15:31N 55°60' E 012°45'0 0.0
2015-Feb-28 14:31N 55°60' E 012°45'0 0.0
2015-Feb-28 13:31N 55°60' E 012°45'0 0.0
2015-Feb-28 12:31N 55°60' E 012°45'0 0.0
2015-Feb-28 11:31N 55°60' E 012°45'2 1.9
2015-Feb-28 10:32N 56°00' E 012°42'1 0.9
2015-Feb-28 09:32N 55°59' E 012°42'0 0.3
2015-Feb-28 08:33N 55°59' E 012°42'0 0.1
2015-Feb-28 07:33N 55°59' E 012°42'1 1.3
2015-Feb-28 06:33N 55°60' E 012°45'0 0.0
2015-Feb-28 05:30N 55°60' E 012°45'0 0.0
2015-Feb-28 04:30N 55°60' E 012°45'0 0.0
2015-Feb-28 03:33N 55°60' E 012°45'0 0.0
2015-Feb-28 02:33N 55°60' E 012°45'0 0.0
2015-Feb-28 01:33N 55°60' E 012°45'0 0.0
2015-Feb-28 00:30N 55°60' E 012°45'0 0.0
2015-Feb-27 23:33N 55°60' E 012°45'0 0.0
2015-Feb-27 22:30N 55°60' E 012°45'0 0.0
2015-Feb-27 21:30N 55°60' E 012°45'0 0.0
2015-Feb-27 20:33N 55°60' E 012°45'0 0.0
2015-Feb-27 19:33N 55°60' E 012°45'0 0.0
2015-Feb-27 18:33N 55°60' E 012°45'0 0.0
2015-Feb-27 13:12N 55°60' E 012°45'2 2.3
2015-Feb-27 12:31N 56°00' E 012°42'1 1.3
2015-Feb-27 11:33N 55°59' E 012°42'2 1.6
2015-Feb-27 10:29N 55°57' E 012°42'3 2.8
2015-Feb-27 09:29N 55°60' E 012°42'0 0.4
2015-Feb-27 08:33N 55°60' E 012°42'0 0.0
2015-Feb-27 07:33N 55°60' E 012°42'1 1.4
2015-Feb-27 06:32N 55°60' E 012°45'0 0.0
2015-Feb-27 05:29N 55°60' E 012°45'0 0.0
2015-Feb-27 04:32N 55°60' E 012°45'0 0.0
2015-Feb-27 03:29N 55°60' E 012°45'0 0.0
2015-Feb-27 02:32N 55°60' E 012°45'0 0.0
2015-Feb-27 01:23N 55°60' E 012°45'0 0.0
2015-Feb-27 00:26N 55°60' E 012°45'0 0.0
2015-Feb-26 23:32N 55°60' E 012°45'0 0.0
2015-Feb-26 22:32N 55°60' E 012°45'0 0.0
2015-Feb-26 21:29N 55°60' E 012°45'0 0.0
2015-Feb-26 20:29N 55°60' E 012°45'0 0.0
2015-Feb-26 19:32N 55°60' E 012°45'0 0.0
2015-Feb-26 18:32N 55°60' E 012°45'0 0.0
2015-Feb-26 17:29N 55°60' E 012°45'0 0.0
2015-Feb-26 16:32N 55°60' E 012°45'0 0.0
2015-Feb-26 15:32N 55°60' E 012°45'0 0.0
2015-Feb-26 14:32N 55°60' E 012°45'0 0.0
2015-Feb-26 13:32N 55°60' E 012°45'0 0.0
2015-Feb-26 12:32N 55°60' E 012°45'0 0.0
2015-Feb-26 09:32N 55°60' E 012°45'0 0.0
2015-Feb-26 08:32N 55°60' E 012°45'0 0.0
2015-Feb-26 07:32N 55°60' E 012°45'0 0.0
2015-Feb-26 06:29N 55°60' E 012°45'0 0.0
2015-Feb-26 05:29N 55°60' E 012°45'0 0.0
2015-Feb-26 04:29N 55°60' E 012°45'0 0.0
2015-Feb-26 03:32N 55°60' E 012°45'0 0.0
2015-Feb-26 02:32N 55°60' E 012°45'0 0.0
2015-Feb-26 01:32N 55°60' E 012°45'0 0.0
2015-Feb-26 00:32N 55°60' E 012°45'0 0.0
2015-Feb-25 23:32N 55°60' E 012°45'0 0.0
2015-Feb-25 22:32N 55°60' E 012°45'0 0.0
2015-Feb-25 21:29N 55°60' E 012°45'0 0.0
2015-Feb-25 20:32N 55°60' E 012°45'0 0.0
2015-Feb-25 19:32N 55°60' E 012°45'0 0.0
2015-Feb-25 18:32N 55°60' E 012°45'0 0.0
2015-Feb-25 17:32N 55°60' E 012°45'0 0.0
2015-Feb-25 16:32N 55°60' E 012°45'0 0.0
2015-Feb-25 15:32N 55°60' E 012°45'0 0.0
2015-Feb-25 14:32N 55°60' E 012°45'0 0.0
2015-Feb-25 13:32N 55°60' E 012°45'0 0.0
2015-Feb-25 12:32N 55°60' E 012°45'0 0.0
2015-Feb-25 11:32N 55°60' E 012°45'1 1.2
2015-Feb-25 10:28N 55°59' E 012°42'0 0.3
2015-Feb-25 09:28N 55°59' E 012°42'0 0.3
2015-Feb-25 08:33N 55°59' E 012°42'1 0.7
2015-Feb-25 07:32N 55°60' E 012°41'2 1.8
2015-Feb-25 06:31N 55°60' E 012°45'0 0.0
2015-Feb-25 05:31N 55°60' E 012°45'0 0.0
2015-Feb-25 04:31N 55°60' E 012°45'0 0.0
2015-Feb-25 03:31N 55°60' E 012°45'0 0.0
2015-Feb-25 02:28N 55°60' E 012°45'0 0.0
2015-Feb-25 01:31N 55°60' E 012°45'0 0.0
2015-Feb-25 00:22N 55°60' E 012°45'0 0.0
2015-Feb-24 23:31N 55°60' E 012°45'0 0.0
2015-Feb-24 22:31N 55°60' E 012°45'0 0.0
2015-Feb-24 21:31N 55°60' E 012°45'0 0.0
2015-Feb-24 20:31N 55°60' E 012°45'0 0.0
2015-Feb-24 19:31N 55°60' E 012°45'0 0.0
2015-Feb-24 18:31N 55°60' E 012°45'0 0.0
2015-Feb-24 17:31N 55°60' E 012°45'0 0.0
2015-Feb-24 16:31N 55°60' E 012°45'0 0.0
2015-Feb-24 15:31N 55°60' E 012°45'0 0.0
2015-Feb-24 14:31N 55°60' E 012°45'0 0.0
2015-Feb-24 13:31N 55°60' E 012°45'0 0.0
2015-Feb-24 12:31N 55°60' E 012°45'0 0.0
2015-Feb-24 11:28N 55°60' E 012°45'0 0.0
2015-Feb-24 10:31N 55°60' E 012°45'0 0.0
2015-Feb-24 09:31N 55°60' E 012°45'0 0.0
2015-Feb-24 08:28N 55°60' E 012°45'0 0.0
2015-Feb-24 07:31N 55°60' E 012°45'0 0.0
2015-Feb-24 06:32N 55°60' E 012°45'0 0.0
2015-Feb-24 05:31N 55°60' E 012°45'0 0.0
2015-Feb-24 04:31N 55°60' E 012°45'0 0.0
2015-Feb-24 03:32N 55°60' E 012°45'0 0.0
2015-Feb-24 02:32N 55°60' E 012°45'0 0.0
2015-Feb-24 01:32N 55°60' E 012°45'0 0.0
2015-Feb-24 00:32N 55°60' E 012°45'0 0.0
2015-Feb-23 23:32N 55°60' E 012°45'0 0.0
2015-Feb-23 22:32N 55°60' E 012°45'0 0.0
2015-Feb-23 21:32N 55°60' E 012°45'0 0.0
2015-Feb-23 20:32N 55°60' E 012°45'0 0.0
2015-Feb-23 19:32N 55°60' E 012°45'0 0.0
2015-Feb-23 18:32N 55°60' E 012°45'0 0.0
2015-Feb-23 17:32N 55°60' E 012°45'0 0.0
2015-Feb-23 16:29N 55°60' E 012°45'0 0.0
2015-Feb-23 15:32N 55°60' E 012°45'0 0.0
2015-Feb-23 14:32N 55°60' E 012°45'0 0.0
2015-Feb-23 13:32N 55°60' E 012°45'0 0.0
2015-Feb-23 12:32N 55°60' E 012°45'0 0.0
2015-Feb-23 11:32N 55°60' E 012°45'0 0.0
2015-Feb-23 10:32N 55°60' E 012°45'0 0.0
2015-Feb-23 09:32N 55°60' E 012°45'0 0.0
2015-Feb-23 08:32N 55°60' E 012°45'0 0.0
2015-Feb-23 07:32N 55°60' E 012°45'0 0.0
2015-Feb-23 06:32N 55°60' E 012°45'0 0.0
2015-Feb-23 05:32N 55°60' E 012°45'0 0.0
2015-Feb-23 04:29N 55°60' E 012°45'0 0.0
2015-Feb-23 03:29N 55°60' E 012°45'0 0.0
2015-Feb-23 02:32N 55°60' E 012°45'0 0.0
2015-Feb-23 01:32N 55°60' E 012°45'0 0.0
2015-Feb-23 00:32N 55°60' E 012°45'0 0.0
2015-Feb-22 23:29N 55°60' E 012°45'0 0.0
2015-Feb-22 22:32N 55°60' E 012°45'0 0.0
2015-Feb-22 21:32N 55°60' E 012°45'0 0.0
2015-Feb-22 20:32N 55°60' E 012°45'0 0.0
2015-Feb-22 19:32N 55°60' E 012°45'0 0.0
2015-Feb-22 18:29N 55°60' E 012°45'0 0.0
2015-Feb-22 17:32N 55°60' E 012°45'0 0.0
2015-Feb-22 16:32N 55°60' E 012°45'0 0.0
2015-Feb-22 15:32N 55°60' E 012°45'0 0.0
2015-Feb-20 20:33N 55°60' E 012°45'0 0.0
2015-Feb-20 19:33N 55°60' E 012°45'0 0.0
2015-Feb-20 18:33N 55°60' E 012°45'0 0.0
2015-Feb-20 17:27N 55°60' E 012°45'0 0.0
2015-Feb-20 16:33N 55°60' E 012°45'0 0.0
2015-Feb-20 15:33N 55°60' E 012°45'0 0.0
2015-Feb-20 14:30N 55°60' E 012°45'0 0.0
2015-Feb-20 13:33N 55°60' E 012°45'0 0.0
2015-Feb-20 12:33N 55°60' E 012°45'0 0.0
2015-Feb-20 11:33N 55°60' E 012°45'0 0.0
2015-Feb-20 10:33N 55°60' E 012°45'0 0.0
2015-Feb-20 09:33N 55°60' E 012°45'0 0.0
2015-Feb-20 08:33N 55°60' E 012°45'0 0.0
2015-Feb-20 07:30N 55°60' E 012°45'0 0.0
2015-Feb-20 06:33N 55°60' E 012°45'0 0.0
2015-Feb-20 05:33N 55°60' E 012°45'0 0.0
2015-Feb-20 04:33N 55°60' E 012°45'0 0.0
2015-Feb-20 03:33N 55°60' E 012°45'0 0.0
2015-Feb-20 02:33N 55°60' E 012°45'0 0.0
2015-Feb-20 01:33N 55°60' E 012°45'0 0.0
2015-Feb-20 00:33N 55°60' E 012°45'0 0.0
2015-Feb-19 23:30N 55°60' E 012°45'0 0.0
2015-Feb-19 22:33N 55°60' E 012°45'0 0.0
2015-Feb-19 21:30N 55°60' E 012°45'0 0.0
2015-Feb-19 20:33N 55°60' E 012°45'0 0.0
2015-Feb-19 19:33N 55°60' E 012°45'0 0.0
2015-Feb-19 18:30N 55°60' E 012°45'0 0.0
2015-Feb-19 17:33N 55°60' E 012°45'0 0.0
2015-Feb-19 16:33N 55°60' E 012°45'0 0.0
2015-Feb-19 15:33N 55°60' E 012°45'0 0.0
2015-Feb-19 14:33N 55°60' E 012°45'0 0.0
2015-Feb-19 13:33N 55°60' E 012°45'0 0.0
2015-Feb-19 12:30N 55°60' E 012°45'0 0.0
2015-Feb-19 11:33N 55°60' E 012°45'0 0.0
2015-Feb-19 10:30N 55°60' E 012°45'0 0.0
2015-Feb-19 09:30N 55°60' E 012°45'0 0.0
2015-Feb-19 08:33N 55°60' E 012°45'0 0.0
2015-Feb-19 07:33N 55°60' E 012°45'  
Track history (hours):
 
Tides and Currents Weather Stations Pressure Air Temp Water Temp Dewpoint Dewpoint Depression Visibility Wind Speed Wind Dir Waves Ship Positions

Siam

Last reported at 2015-Mar-01 07:29 UTC. Time now 2015-Mar-01 10:59 UTC.
Position N 55°56' E 012°42'.

Length 22 m.

Type: Passenger vessel. MMSI: 265572320.

Date/timePositionNaut miles runAvg speedWind from/ knotsBaromVisibWave heightAir tempDewpointWater temp
2015-Mar-01 07:29N 55°56' E 012°42'4 0.8
2015-Mar-01 02:27N 55°60' E 012°45'0 0.0
2015-Mar-01 01:33N 55°60' E 012°45'0 0.0
2015-Mar-01 00:34N 55°60' E 012°45'0 0.0
2015-Feb-28 23:33N 55°60' E 012°45'0 0.0
2015-Feb-28 22:34N 55°60' E 012°45'0 0.0
2015-Feb-28 21:31N 55°60' E 012°45'0 0.0
2015-Feb-28 20:31N 55°60' E 012°45'0 0.0
2015-Feb-28 19:31N 55°60' E 012°45'0 0.0
2015-Feb-28 18:31N 55°60' E 012°45'0 0.0
2015-Feb-28 17:25N 55°60' E 012°45'0 0.0
2015-Feb-28 16:31N 55°60' E 012°45'0 0.0
2015-Feb-28 15:31N 55°60' E 012°45'0 0.0
2015-Feb-28 14:31N 55°60' E 012°45'0 0.0
2015-Feb-28 13:31N 55°60' E 012°45'0 0.0
2015-Feb-28 12:31N 55°60' E 012°45'0 0.0
2015-Feb-28 11:31N 55°60' E 012°45'2 1.9
2015-Feb-28 10:32N 56°00' E 012°42'1 0.9
2015-Feb-28 09:32N 55°59' E 012°42'0 0.3
2015-Feb-28 08:33N 55°59' E 012°42'0 0.1
2015-Feb-28 07:33N 55°59' E 012°42'1 1.3
2015-Feb-28 06:33N 55°60' E 012°45'0 0.0
2015-Feb-28 05:30N 55°60' E 012°45'0 0.0
2015-Feb-28 04:30N 55°60' E 012°45'0 0.0
2015-Feb-28 03:33N 55°60' E 012°45'0 0.0
2015-Feb-28 02:33N 55°60' E 012°45'0 0.0
2015-Feb-28 01:33N 55°60' E 012°45'0 0.0
2015-Feb-28 00:30N 55°60' E 012°45'0 0.0
2015-Feb-27 23:33N 55°60' E 012°45'0 0.0
2015-Feb-27 22:30N 55°60' E 012°45'0 0.0
2015-Feb-27 21:30N 55°60' E 012°45'0 0.0
2015-Feb-27 20:33N 55°60' E 012°45'0 0.0
2015-Feb-27 19:33N 55°60' E 012°45'0 0.0
2015-Feb-27 18:33N 55°60' E 012°45'0 0.0
2015-Feb-27 13:12N 55°60' E 012°45'2 2.3
2015-Feb-27 12:31N 56°00' E 012°42'1 1.3
2015-Feb-27 11:33N 55°59' E 012°42'2 1.6
2015-Feb-27 10:29N 55°57' E 012°42'3 2.8
2015-Feb-27 09:29N 55°60' E 012°42'0 0.4
2015-Feb-27 08:33N 55°60' E 012°42'0 0.0
2015-Feb-27 07:33N 55°60' E 012°42'1 1.4
2015-Feb-27 06:32N 55°60' E 012°45'0 0.0
2015-Feb-27 05:29N 55°60' E 012°45'0 0.0
2015-Feb-27 04:32N 55°60' E 012°45'0 0.0
2015-Feb-27 03:29N 55°60' E 012°45'0 0.0
2015-Feb-27 02:32N 55°60' E 012°45'0 0.0
2015-Feb-27 01:23N 55°60' E 012°45'0 0.0
2015-Feb-27 00:26N 55°60' E 012°45'0 0.0
2015-Feb-26 23:32N 55°60' E 012°45'0 0.0
2015-Feb-26 22:32N 55°60' E 012°45'0 0.0
2015-Feb-26 21:29N 55°60' E 012°45'0 0.0
2015-Feb-26 20:29N 55°60' E 012°45'0 0.0
2015-Feb-26 19:32N 55°60' E 012°45'0 0.0
2015-Feb-26 18:32N 55°60' E 012°45'0 0.0
2015-Feb-26 17:29N 55°60' E 012°45'0 0.0
2015-Feb-26 16:32N 55°60' E 012°45'0 0.0
2015-Feb-26 15:32N 55°60' E 012°45'0 0.0
2015-Feb-26 14:32N 55°60' E 012°45'0 0.0
2015-Feb-26 13:32N 55°60' E 012°45'0 0.0
2015-Feb-26 12:32N 55°60' E 012°45'0 0.0
2015-Feb-26 09:32N 55°60' E 012°45'0 0.0
2015-Feb-26 08:32N 55°60' E 012°45'0 0.0
2015-Feb-26 07:32N 55°60' E 012°45'0 0.0
2015-Feb-26 06:29N 55°60' E 012°45'0 0.0
2015-Feb-26 05:29N 55°60' E 012°45'0 0.0
2015-Feb-26 04:29N 55°60' E 012°45'0 0.0
2015-Feb-26 03:32N 55°60' E 012°45'0 0.0
2015-Feb-26 02:32N 55°60' E 012°45'0 0.0
2015-Feb-26 01:32N 55°60' E 012°45'0 0.0
2015-Feb-26 00:32N 55°60' E 012°45'0 0.0
2015-Feb-25 23:32N 55°60' E 012°45'0 0.0
2015-Feb-25 22:32N 55°60' E 012°45'0 0.0
2015-Feb-25 21:29N 55°60' E 012°45'0 0.0
2015-Feb-25 20:32N 55°60' E 012°45'0 0.0
2015-Feb-25 19:32N 55°60' E 012°45'0 0.0
2015-Feb-25 18:32N 55°60' E 012°45'0 0.0
2015-Feb-25 17:32N 55°60' E 012°45'0 0.0
2015-Feb-25 16:32N 55°60' E 012°45'0 0.0
2015-Feb-25 15:32N 55°60' E 012°45'0 0.0
2015-Feb-25 14:32N 55°60' E 012°45'0 0.0
2015-Feb-25 13:32N 55°60' E 012°45'0 0.0
2015-Feb-25 12:32N 55°60' E 012°45'0 0.0
2015-Feb-25 11:32N 55°60' E 012°45'1 1.2
2015-Feb-25 10:28N 55°59' E 012°42'0 0.3
2015-Feb-25 09:28N 55°59' E 012°42'0 0.3
2015-Feb-25 08:33N 55°59' E 012°42'1 0.7
2015-Feb-25 07:32N 55°60' E 012°41'2 1.8
2015-Feb-25 06:31N 55°60' E 012°45'0 0.0
2015-Feb-25 05:31N 55°60' E 012°45'0 0.0
2015-Feb-25 04:31N 55°60' E 012°45'0 0.0
2015-Feb-25 03:31N 55°60' E 012°45'0 0.0
2015-Feb-25 02:28N 55°60' E 012°45'0 0.0
2015-Feb-25 01:31N 55°60' E 012°45'0 0.0
2015-Feb-25 00:22N 55°60' E 012°45'0 0.0
2015-Feb-24 23:31N 55°60' E 012°45'0 0.0
2015-Feb-24 22:31N 55°60' E 012°45'0 0.0
2015-Feb-24 21:31N 55°60' E 012°45'0 0.0
2015-Feb-24 20:31N 55°60' E 012°45'0 0.0
2015-Feb-24 19:31N 55°60' E 012°45'0 0.0
2015-Feb-24 18:31N 55°60' E 012°45'0 0.0
2015-Feb-24 17:31N 55°60' E 012°45'0 0.0
2015-Feb-24 16:31N 55°60' E 012°45'0 0.0
2015-Feb-24 15:31N 55°60' E 012°45'0 0.0
2015-Feb-24 14:31N 55°60' E 012°45'0 0.0
2015-Feb-24 13:31N 55°60' E 012°45'0 0.0
2015-Feb-24 12:31N 55°60' E 012°45'0 0.0
2015-Feb-24 11:28N 55°60' E 012°45'0 0.0
2015-Feb-24 10:31N 55°60' E 012°45'0 0.0
2015-Feb-24 09:31N 55°60' E 012°45'0 0.0
2015-Feb-24 08:28N 55°60' E 012°45'0 0.0
2015-Feb-24 07:31N 55°60' E 012°45'0 0.0
2015-Feb-24 06:32N 55°60' E 012°45'0 0.0
2015-Feb-24 05:31N 55°60' E 012°45'0 0.0
2015-Feb-24 04:31N 55°60' E 012°45'0 0.0
2015-Feb-24 03:32N 55°60' E 012°45'0 0.0
2015-Feb-24 02:32N 55°60' E 012°45'0 0.0
2015-Feb-24 01:32N 55°60' E 012°45'0 0.0
2015-Feb-24 00:32N 55°60' E 012°45'0 0.0
2015-Feb-23 23:32N 55°60' E 012°45'0 0.0
2015-Feb-23 22:32N 55°60' E 012°45'0 0.0
2015-Feb-23 21:32N 55°60' E 012°45'0 0.0
2015-Feb-23 20:32N 55°60' E 012°45'0 0.0
2015-Feb-23 19:32N 55°60' E 012°45'0 0.0
2015-Feb-23 18:32N 55°60' E 012°45'0 0.0
2015-Feb-23 17:32N 55°60' E 012°45'0 0.0
2015-Feb-23 16:29N 55°60' E 012°45'0 0.0
2015-Feb-23 15:32N 55°60' E 012°45'0 0.0
2015-Feb-23 14:32N 55°60' E 012°45'0 0.0
2015-Feb-23 13:32N 55°60' E 012°45'0 0.0
2015-Feb-23 12:32N 55°60' E 012°45'0 0.0
2015-Feb-23 11:32N 55°60' E 012°45'0 0.0
2015-Feb-23 10:32N 55°60' E 012°45'0 0.0
2015-Feb-23 09:32N 55°60' E 012°45'0 0.0
2015-Feb-23 08:32N 55°60' E 012°45'0 0.0
2015-Feb-23 07:32N 55°60' E 012°45'0 0.0
2015-Feb-23 06:32N 55°60' E 012°45'0 0.0
2015-Feb-23 05:32N 55°60' E 012°45'0 0.0
2015-Feb-23 04:29N 55°60' E 012°45'0 0.0
2015-Feb-23 03:29N 55°60' E 012°45'0 0.0
2015-Feb-23 02:32N 55°60' E 012°45'0 0.0
2015-Feb-23 01:32N 55°60' E 012°45'0 0.0
2015-Feb-23 00:32N 55°60' E 012°45'0 0.0
2015-Feb-22 23:29N 55°60' E 012°45'0 0.0
2015-Feb-22 22:32N 55°60' E 012°45'0 0.0
2015-Feb-22 21:32N 55°60' E 012°45'0 0.0
2015-Feb-22 20:32N 55°60' E 012°45'0 0.0
2015-Feb-22 19:32N 55°60' E 012°45'0 0.0
2015-Feb-22 18:29N 55°60' E 012°45'0 0.0
2015-Feb-22 17:32N 55°60' E 012°45'0 0.0
2015-Feb-22 16:32N 55°60' E 012°45'0 0.0
2015-Feb-22 15:32N 55°60' E 012°45'0 0.0
2015-Feb-20 20:33N 55°60' E 012°45'0 0.0
2015-Feb-20 19:33N 55°60' E 012°45'0 0.0
2015-Feb-20 18:33N 55°60' E 012°45'0 0.0
2015-Feb-20 17:27N 55°60' E 012°45'0 0.0
2015-Feb-20 16:33N 55°60' E 012°45'0 0.0
2015-Feb-20 15:33N 55°60' E 012°45'0 0.0
2015-Feb-20 14:30N 55°60' E 012°45'0 0.0
2015-Feb-20 13:33N 55°60' E 012°45'0 0.0
2015-Feb-20 12:33N 55°60' E 012°45'0 0.0
2015-Feb-20 11:33N 55°60' E 012°45'0 0.0
2015-Feb-20 10:33N 55°60' E 012°45'0 0.0
2015-Feb-20 09:33N 55°60' E 012°45'0 0.0
2015-Feb-20 08:33N 55°60' E 012°45'0 0.0
2015-Feb-20 07:30N 55°60' E 012°45'0 0.0
2015-Feb-20 06:33N 55°60' E 012°45'0 0.0
2015-Feb-20 05:33N 55°60' E 012°45'0 0.0
2015-Feb-20 04:33N 55°60' E 012°45'0 0.0
2015-Feb-20 03:33N 55°60' E 012°45'0 0.0
2015-Feb-20 02:33N 55°60' E 012°45'0 0.0
2015-Feb-20 01:33N 55°60' E 012°45'0 0.0
2015-Feb-20 00:33N 55°60' E 012°45'0 0.0
2015-Feb-19 23:30N 55°60' E 012°45'0 0.0
2015-Feb-19 22:33N 55°60' E 012°45'0 0.0
2015-Feb-19 21:30N 55°60' E 012°45'0 0.0
2015-Feb-19 20:33N 55°60' E 012°45'0 0.0
2015-Feb-19 19:33N 55°60' E 012°45'0 0.0
2015-Feb-19 18:30N 55°60' E 012°45'0 0.0
2015-Feb-19 17:33N 55°60' E 012°45'0 0.0
2015-Feb-19 16:33N 55°60' E 012°45'0 0.0
2015-Feb-19 15:33N 55°60' E 012°45'0 0.0
2015-Feb-19 14:33N 55°60' E 012°45'0 0.0
2015-Feb-19 13:33N 55°60' E 012°45'0 0.0
2015-Feb-19 12:30N 55°60' E 012°45'0 0.0
2015-Feb-19 11:33N 55°60' E 012°45'0 0.0
2015-Feb-19 10:30N 55°60' E 012°45'0 0.0
2015-Feb-19 09:30N 55°60' E 012°45'0 0.0
2015-Feb-19 08:33N 55°60' E 012°45'0 0.0
2015-Feb-19 07:33N 55°60' E 012°45'  

Dump ship's entire track history